createdAt,value
2019-05-23T00:01:28.819Z,101371.80
2019-05-23T00:04:16.812Z,101369.11
2019-05-23T00:06:47.549Z,101374.34
2019-05-23T00:09:18.468Z,101380.70
2019-05-23T00:12:00.720Z,101384.45
2019-05-23T00:14:44.033Z,101379.45
2019-05-23T00:17:20.822Z,101378.03
2019-05-23T00:19:52.232Z,101373.47
2019-05-23T00:22:22.411Z,101387.03
2019-05-23T00:24:53.614Z,101381.98
2019-05-23T00:27:24.937Z,101379.58
2019-05-23T00:29:57.431Z,101379.43
2019-05-23T00:32:38.529Z,101377.33
2019-05-23T00:35:09.937Z,101374.67
2019-05-23T00:37:43.035Z,101378.32
2019-05-23T00:40:15.989Z,101393.13
2019-05-23T00:42:46.384Z,101382.84
2019-05-23T00:45:17.458Z,101383.52
2019-05-23T00:47:48.553Z,101380.21
2019-05-23T00:50:21.346Z,101378.56
2019-05-23T00:52:53.131Z,101381.62
2019-05-23T00:55:24.030Z,101386.27
2019-05-23T00:57:54.719Z,101385.61
2019-05-23T01:00:25.747Z,101389.66
2019-05-23T01:02:56.966Z,101393.14
2019-05-23T01:05:28.133Z,101390.67
2019-05-23T01:07:59.876Z,101394.98
2019-05-23T01:10:31.220Z,101387.25
2019-05-23T01:13:01.192Z,101396.70
2019-05-23T01:15:32.939Z,101397.48
2019-05-23T01:18:04.049Z,101401.48
2019-05-23T01:20:49.618Z,101400.20
2019-05-23T01:23:20.573Z,101404.81
2019-05-23T01:25:50.828Z,101405.16
2019-05-23T01:28:21.220Z,101408.73
2019-05-23T01:30:53.091Z,101403.44
2019-05-23T01:33:23.345Z,101404.61
2019-05-23T01:35:54.045Z,101412.63
2019-05-23T01:38:24.230Z,101415.35
2019-05-23T01:40:54.798Z,101406.86
2019-05-23T01:43:26.346Z,101410.98
2019-05-23T01:45:56.570Z,101418.48
2019-05-23T01:48:27.652Z,101412.52
2019-05-23T01:50:58.395Z,101415.38
2019-05-23T01:53:29.692Z,101419.78
2019-05-23T01:55:59.885Z,101423.72
2019-05-23T01:58:30.665Z,101424.74
2019-05-23T02:01:01.310Z,101428.22
2019-05-23T02:03:31.820Z,101418.67
2019-05-23T02:06:02.224Z,101420.48
2019-05-23T02:08:33.899Z,101429.64
2019-05-23T02:11:04.293Z,101427.42
2019-05-23T02:13:35.560Z,101433.63
2019-05-23T02:16:06.235Z,101429.05
2019-05-23T02:18:36.646Z,101433.70
2019-05-23T02:21:07.719Z,101432.72
2019-05-23T02:23:37.746Z,101432.69
2019-05-23T02:26:09.313Z,101437.40
2019-05-23T02:28:39.697Z,101436.25
2019-05-23T02:31:11.035Z,101431.72
2019-05-23T02:33:41.621Z,101429.78
2019-05-23T02:36:12.845Z,101431.11
2019-05-23T02:38:59.834Z,101434.95
2019-05-23T02:41:47.872Z,101432.86
2019-05-23T02:44:21.431Z,101431.77
2019-05-23T02:47:06.102Z,101425.47
2019-05-23T02:49:37.931Z,101421.81
2019-05-23T02:52:49.858Z,101420.41
2019-05-23T02:55:30.594Z,101423.48
2019-05-23T02:58:21.896Z,101428.40
2019-05-23T03:01:27.746Z,101435.24
2019-05-23T03:04:02.073Z,101432.02
2019-05-23T03:06:32.350Z,101434.95
2019-05-23T03:09:04.510Z,101437.08
2019-05-23T03:11:39.827Z,101434.78
2019-05-23T03:14:16.241Z,101440.47
2019-05-23T03:16:51.034Z,101442.95
2019-05-23T03:19:38.620Z,101441.43
2019-05-23T03:22:39.951Z,101439.27
2019-05-23T03:25:54.486Z,101436.48
2019-05-23T03:28:27.531Z,101443.71
2019-05-23T03:31:25.325Z,101440.36
2019-05-23T03:33:33.057Z,101448.98
2019-05-23T03:36:03.148Z,101450.84
2019-05-23T03:38:34.266Z,101451.24
2019-05-23T03:41:05.389Z,101443.22
2019-05-23T03:43:36.782Z,101449.16
2019-05-23T03:46:09.158Z,101450.91
2019-05-23T03:48:40.724Z,101453.53
2019-05-23T03:51:10.787Z,101456.48
2019-05-23T03:53:42.460Z,101453.12
2019-05-23T03:56:13.564Z,101456.02
2019-05-23T03:58:45.003Z,101452.47
2019-05-23T04:01:16.190Z,101448.45
2019-05-23T04:03:47.565Z,101456.17
2019-05-23T04:06:17.895Z,101455.55
2019-05-23T04:08:48.678Z,101457.28
2019-05-23T04:11:19.487Z,101464.17
2019-05-23T04:13:49.781Z,101460.30
2019-05-23T04:17:03.871Z,101467.37
2019-05-23T04:19:34.941Z,101468.70
2019-05-23T04:22:13.965Z,101475.72
2019-05-23T04:24:50.332Z,101481.55
2019-05-23T04:27:25.470Z,101482.25
2019-05-23T04:30:05.486Z,101477.39
2019-05-23T04:33:08.482Z,101475.44
2019-05-23T04:35:38.416Z,101475.41
2019-05-23T04:38:09.589Z,101484.69
2019-05-23T04:40:40.020Z,101479.97
2019-05-23T04:43:09.952Z,101481.05
2019-05-23T04:45:40.014Z,101481.56
2019-05-23T04:48:10.460Z,101485.53
2019-05-23T04:50:41.195Z,101488.17
2019-05-23T04:53:11.321Z,101491.69
2019-05-23T04:55:42.253Z,101486.11
2019-05-23T04:58:13.671Z,101492.05
2019-05-23T05:00:44.173Z,101494.73
2019-05-23T05:03:18.272Z,101490.09
2019-05-23T05:05:47.663Z,101485.81
2019-05-23T05:08:17.690Z,101486.16
2019-05-23T05:10:48.352Z,101483.25
2019-05-23T05:13:18.419Z,101493.53
2019-05-23T05:15:48.293Z,101490.48
2019-05-23T05:18:18.489Z,101497.23
2019-05-23T05:20:48.926Z,101496.03
2019-05-23T05:23:19.059Z,101495.65
2019-05-23T05:25:48.931Z,101500.95
2019-05-23T05:28:19.415Z,101494.73
2019-05-23T05:30:49.361Z,101486.05
2019-05-23T05:33:19.563Z,101490.95
2019-05-23T05:35:49.692Z,101493.45
2019-05-23T05:38:20.706Z,101499.56
2019-05-23T05:40:51.726Z,101499.72
2019-05-23T05:43:21.919Z,101498.44
2019-05-23T05:45:51.784Z,101494.09
2019-05-23T05:48:21.895Z,101496.52
2019-05-23T05:50:51.982Z,101493.97
2019-05-23T05:53:22.096Z,101510.27
2019-05-23T05:55:52.112Z,101503.21
2019-05-23T05:58:22.127Z,101502.39
2019-05-23T06:00:56.545Z,101498.09
2019-05-23T06:03:26.566Z,101500.71
2019-05-23T06:06:09.553Z,101506.09
2019-05-23T06:08:40.635Z,101496.93
2019-05-23T06:11:10.777Z,101503.86
2019-05-23T06:13:41.006Z,101509.01
2019-05-23T06:16:11.820Z,101508.19
2019-05-23T06:18:42.153Z,101515.41
2019-05-23T06:21:14.636Z,101520.27
2019-05-23T06:23:44.986Z,101515.22
2019-05-23T06:26:15.215Z,101510.86
2019-05-23T06:28:46.008Z,101522.97
2019-05-23T06:31:39.507Z,101519.90
2019-05-23T06:34:10.770Z,101515.60
2019-05-23T06:36:41.108Z,101517.58
2019-05-23T06:39:13.290Z,101515.98
2019-05-23T06:41:43.613Z,101520.16
2019-05-23T06:44:15.140Z,101524.64
2019-05-23T06:46:45.141Z,101525.41
2019-05-23T06:49:15.492Z,101515.20
2019-05-23T06:51:45.481Z,101518.04
2019-05-23T06:54:18.073Z,101514.34
2019-05-23T06:56:48.660Z,101519.41
2019-05-23T06:59:19.509Z,101518.08
2019-05-23T07:01:49.523Z,101521.05
2019-05-23T07:04:20.120Z,101513.70
2019-05-23T07:06:50.883Z,101521.02
2019-05-23T07:09:21.419Z,101517.66
2019-05-23T07:11:56.592Z,101514.90
2019-05-23T07:14:26.686Z,101511.39
2019-05-23T07:16:57.060Z,101519.22
2019-05-23T07:19:27.182Z,101519.34
2019-05-23T07:21:57.146Z,101520.12
2019-05-23T07:24:28.105Z,101525.99
2019-05-23T07:26:58.210Z,101530.84
2019-05-23T07:29:28.220Z,101525.20
2019-05-23T07:31:58.923Z,101531.67
2019-05-23T07:34:29.681Z,101540.33
2019-05-23T07:37:00.745Z,101539.02
2019-05-23T07:39:30.801Z,101532.55
2019-05-23T07:42:01.340Z,101533.39
2019-05-23T07:44:47.387Z,101536.45
2019-05-23T07:47:06.269Z,101526.02
2019-05-23T07:49:36.846Z,101532.97
2019-05-23T07:52:06.840Z,101531.23
2019-05-23T07:54:54.130Z,101532.52
2019-05-23T07:57:25.640Z,101537.69
2019-05-23T07:59:55.971Z,101530.80
2019-05-23T08:02:37.188Z,101536.43
2019-05-23T08:05:08.343Z,101536.86
2019-05-23T08:07:38.458Z,101528.22
2019-05-23T08:10:09.166Z,101529.95
2019-05-23T08:12:39.926Z,101529.97
2019-05-23T08:15:11.175Z,101518.61
2019-05-23T08:17:41.237Z,101522.95
2019-05-23T08:20:14.344Z,101526.48
2019-05-23T08:22:44.573Z,101526.00
2019-05-23T08:25:14.599Z,101517.34
2019-05-23T08:27:45.628Z,101519.42
2019-05-23T08:30:16.855Z,101523.73
2019-05-23T08:32:46.870Z,101514.20
2019-05-23T08:35:18.204Z,101520.69
2019-05-23T08:37:48.348Z,101520.70
2019-05-23T08:40:18.775Z,101519.88
2019-05-23T08:42:48.644Z,101525.64
2019-05-23T08:45:19.347Z,101516.78
2019-05-23T08:47:49.507Z,101517.69
2019-05-23T08:50:21.176Z,101519.97
2019-05-23T08:52:51.321Z,101512.48
2019-05-23T08:55:23.423Z,101508.86
2019-05-23T08:57:54.534Z,101519.28
2019-05-23T09:00:27.070Z,101514.31
2019-05-23T09:02:59.075Z,101516.53
2019-05-23T09:05:30.450Z,101520.27
2019-05-23T09:08:01.117Z,101512.05
2019-05-23T09:10:32.901Z,101517.80
2019-05-23T09:13:03.404Z,101518.67
2019-05-23T09:15:33.369Z,101522.06
2019-05-23T09:18:04.831Z,101518.55
2019-05-23T09:20:34.976Z,101517.64
2019-05-23T09:23:05.225Z,101511.30
2019-05-23T09:25:35.271Z,101516.70
2019-05-23T09:28:06.395Z,101511.77
2019-05-23T09:30:37.062Z,101517.38
2019-05-23T09:33:07.142Z,101517.58
2019-05-23T09:35:37.316Z,101522.48
2019-05-23T09:38:07.251Z,101518.05
2019-05-23T09:40:37.383Z,101513.55
2019-05-23T09:43:07.821Z,101518.13
2019-05-23T09:45:37.938Z,101512.00
2019-05-23T09:48:08.350Z,101512.24
2019-05-23T09:50:38.357Z,101512.78
2019-05-23T09:53:08.375Z,101512.34
2019-05-23T09:55:38.250Z,101513.34
2019-05-23T09:58:08.205Z,101505.97
2019-05-23T10:00:40.212Z,101506.38
2019-05-23T10:03:10.580Z,101504.43
2019-05-23T10:05:43.759Z,101503.59
2019-05-23T10:08:12.797Z,101508.77
2019-05-23T10:10:42.853Z,101499.80
2019-05-23T10:13:12.839Z,101503.48
2019-05-23T10:15:51.553Z,101508.08
2019-05-23T10:18:22.127Z,101500.74
2019-05-23T10:20:52.207Z,101498.32
2019-05-23T10:23:29.952Z,101490.84
2019-05-23T10:26:01.626Z,101507.23
2019-05-23T10:28:31.674Z,101504.10
2019-05-23T10:31:01.856Z,101495.75
2019-05-23T10:33:31.941Z,101493.27
2019-05-23T10:36:02.408Z,101493.11
2019-05-23T10:38:32.592Z,101499.36
2019-05-23T10:41:03.521Z,101484.55
2019-05-23T10:43:33.468Z,101483.25
2019-05-23T10:46:03.492Z,101494.76
2019-05-23T10:48:33.943Z,101488.39
2019-05-23T10:51:04.481Z,101489.25
2019-05-23T10:53:34.544Z,101498.56
2019-05-23T10:56:04.725Z,101483.77
2019-05-23T10:58:35.048Z,101479.62
2019-05-23T11:01:05.233Z,101488.64
2019-05-23T11:03:35.958Z,101486.55
2019-05-23T11:06:15.505Z,101479.81
2019-05-23T11:08:39.513Z,101477.39
2019-05-23T11:11:14.157Z,101491.13
2019-05-23T11:13:44.355Z,101486.17
2019-05-23T11:16:14.760Z,101482.98
2019-05-23T11:18:45.026Z,101479.30
2019-05-23T11:21:14.909Z,101481.30
2019-05-23T11:23:49.512Z,101478.03
2019-05-23T11:26:19.533Z,101467.86
2019-05-23T11:28:49.848Z,101465.15
2019-05-23T11:31:19.975Z,101463.22
2019-05-23T11:33:49.951Z,101457.05
2019-05-23T11:36:35.023Z,101460.61
2019-05-23T11:38:51.867Z,101465.34
2019-05-23T11:41:22.633Z,101465.09
2019-05-23T11:43:52.731Z,101471.75
2019-05-23T11:46:28.660Z,101458.81
2019-05-23T11:48:58.771Z,101466.05
2019-05-23T11:51:28.954Z,101468.52
2019-05-23T11:54:07.862Z,101463.48
2019-05-23T11:56:31.951Z,101460.47
2019-05-23T11:59:02.228Z,101471.35
2019-05-23T12:01:47.874Z,101462.05
2019-05-23T12:04:39.459Z,101466.03
2019-05-23T12:07:15.079Z,101464.83
2019-05-23T12:09:45.002Z,101460.16
2019-05-23T12:12:14.997Z,101462.81
2019-05-23T12:14:45.187Z,101461.88
2019-05-23T12:17:16.916Z,101475.87
2019-05-23T12:19:46.926Z,101466.36
2019-05-23T12:22:18.088Z,101454.83
2019-05-23T12:24:48.111Z,101459.80
2019-05-23T12:27:18.068Z,101457.77
2019-05-23T12:29:48.407Z,101459.58
2019-05-23T12:32:18.479Z,101455.34
2019-05-23T12:35:08.603Z,101451.78
2019-05-23T12:37:20.865Z,101447.16
2019-05-23T12:39:51.991Z,101447.87
2019-05-23T12:42:22.079Z,101442.36
2019-05-23T12:44:52.096Z,101442.42
2019-05-23T12:47:29.283Z,101435.80
2019-05-23T12:50:04.513Z,101425.91
2019-05-23T12:52:35.005Z,101428.31
2019-05-23T12:55:05.972Z,101427.39
2019-05-23T12:57:36.113Z,101425.67
2019-05-23T13:00:09.949Z,101416.02
2019-05-23T13:02:40.080Z,101415.69
2019-05-23T13:05:32.710Z,101416.22
2019-05-23T13:08:06.076Z,101410.71
2019-05-23T13:10:34.989Z,101410.26
2019-05-23T13:13:05.756Z,101408.66
2019-05-23T13:15:36.452Z,101407.47
2019-05-23T13:18:06.929Z,101404.62
2019-05-23T13:20:39.061Z,101393.25
2019-05-23T13:23:13.396Z,101403.22
2019-05-23T13:25:40.989Z,101410.99
2019-05-23T13:28:11.194Z,101399.01
2019-05-23T13:30:41.239Z,101405.93
2019-05-23T13:33:11.463Z,101402.81
2019-05-23T13:35:41.976Z,101395.60
2019-05-23T13:38:11.926Z,101400.15
2019-05-23T13:40:41.960Z,101391.30
2019-05-23T13:43:12.169Z,101378.89
2019-05-23T13:45:42.235Z,101383.34
2019-05-23T13:48:12.410Z,101387.55
2019-05-23T13:50:42.882Z,101379.64
2019-05-23T13:53:13.439Z,101374.64
2019-05-23T13:55:43.720Z,101377.36
2019-05-23T13:58:14.760Z,101371.01
2019-05-23T14:00:45.288Z,101380.03
2019-05-23T14:03:15.565Z,101378.83
2019-05-23T14:05:45.760Z,101373.38
2019-05-23T14:08:19.196Z,101367.56
2019-05-23T14:10:47.438Z,101372.03
2019-05-23T14:13:17.393Z,101361.17
2019-05-23T14:15:49.428Z,101365.11
2019-05-23T14:18:21.112Z,101362.89
2019-05-23T14:20:51.376Z,101364.21
2019-05-23T14:23:39.963Z,101357.97
2019-05-23T14:26:11.533Z,101358.38
2019-05-23T14:28:41.618Z,101361.23
2019-05-23T14:31:13.628Z,101363.11
2019-05-23T14:34:06.328Z,101358.05
2019-05-23T14:36:54.463Z,101352.05
2019-05-23T14:39:41.955Z,101350.06
2019-05-23T14:42:28.508Z,101350.12
2019-05-23T14:45:00.277Z,101351.66
2019-05-23T14:47:47.975Z,101350.62
2019-05-23T14:50:43.913Z,101346.16
2019-05-23T14:53:16.130Z,101345.84
2019-05-23T14:55:46.477Z,101347.18
2019-05-23T14:58:16.868Z,101343.30
2019-05-23T15:00:48.312Z,101349.52
2019-05-23T15:03:19.361Z,101342.20
2019-05-23T15:05:49.875Z,101337.78
2019-05-23T15:08:20.802Z,101336.46
2019-05-23T15:10:50.713Z,101343.89
2019-05-23T15:13:20.653Z,101339.91
2019-05-23T15:15:50.587Z,101333.83
2019-05-23T15:18:20.576Z,101330.56
2019-05-23T15:20:50.621Z,101331.09
2019-05-23T15:23:20.648Z,101327.59
2019-05-23T15:25:50.792Z,101334.30
2019-05-23T15:28:20.814Z,101331.00
2019-05-23T15:30:51.038Z,101331.00
2019-05-23T15:33:21.102Z,101331.23
2019-05-23T15:35:51.082Z,101324.26
2019-05-23T15:38:21.130Z,101322.64
2019-05-23T15:40:51.103Z,101329.04
2019-05-23T15:43:24.137Z,101331.35
2019-05-23T15:45:54.119Z,101322.27
2019-05-23T15:48:25.936Z,101321.95
2019-05-23T15:50:56.588Z,101323.91
2019-05-23T15:53:46.384Z,101318.25
2019-05-23T15:56:35.467Z,101317.89
2019-05-23T15:59:17.847Z,101318.36
2019-05-23T16:01:55.231Z,101329.65
2019-05-23T16:04:25.813Z,101326.00
2019-05-23T16:06:57.055Z,101317.63
2019-05-23T16:09:30.593Z,101319.52
2019-05-23T16:12:00.368Z,101315.97
2019-05-23T16:14:32.402Z,101312.45
2019-05-23T16:17:03.031Z,101314.64
2019-05-23T16:19:33.801Z,101314.41
2019-05-23T16:22:04.790Z,101307.74
2019-05-23T16:24:35.624Z,101319.20
2019-05-23T16:27:08.303Z,101307.05
2019-05-23T16:29:38.913Z,101308.72
2019-05-23T16:32:09.482Z,101309.55
2019-05-23T16:34:40.486Z,101306.49
2019-05-23T16:37:10.410Z,101314.05
2019-05-23T16:39:47.261Z,101310.31
2019-05-23T16:42:12.202Z,101305.81
2019-05-23T16:44:42.949Z,101303.01
2019-05-23T16:47:12.856Z,101305.66
2019-05-23T16:49:42.762Z,101311.05
2019-05-23T16:52:12.801Z,101311.13
2019-05-23T16:54:45.424Z,101307.63
2019-05-23T16:57:22.852Z,101307.98
2019-05-23T17:00:05.408Z,101311.65
2019-05-23T17:02:51.448Z,101303.95
2019-05-23T17:05:41.061Z,101307.52
2019-05-23T17:08:19.706Z,101309.81
2019-05-23T17:10:58.716Z,101310.58
2019-05-23T17:13:35.895Z,101308.48
2019-05-23T17:16:24.378Z,101315.34
2019-05-23T17:19:06.550Z,101315.67
2019-05-23T17:22:13.674Z,101308.88
2019-05-23T17:24:58.854Z,101314.42
2019-05-23T17:27:43.063Z,101317.17
2019-05-23T17:30:42.932Z,101310.42
2019-05-23T17:33:14.244Z,101312.98
2019-05-23T17:35:44.533Z,101309.06
2019-05-23T17:38:14.574Z,101307.05
2019-05-23T17:40:44.580Z,101310.42
2019-05-23T17:43:14.651Z,101308.88
2019-05-23T17:45:44.851Z,101309.31
2019-05-23T17:48:14.903Z,101304.42
2019-05-23T17:50:45.195Z,101307.06
2019-05-23T17:53:15.613Z,101302.34
2019-05-23T17:55:45.962Z,101303.70
2019-05-23T17:58:17.620Z,101305.23
2019-05-23T18:00:49.028Z,101307.04
2019-05-23T18:03:20.246Z,101309.44
2019-05-23T18:05:51.424Z,101306.84
2019-05-23T18:08:21.957Z,101306.62
2019-05-23T18:10:53.279Z,101307.80
2019-05-23T18:13:24.891Z,101308.28
2019-05-23T18:15:55.600Z,101310.72
2019-05-23T18:18:26.277Z,101313.05
2019-05-23T18:20:56.764Z,101303.91
2019-05-23T18:23:28.215Z,101307.77
2019-05-23T18:25:59.335Z,101309.06
2019-05-23T18:28:31.298Z,101313.80
2019-05-23T18:31:08.047Z,101315.08
2019-05-23T18:33:37.172Z,101315.27
2019-05-23T18:36:07.280Z,101316.32
2019-05-23T18:38:38.379Z,101318.48
2019-05-23T18:41:09.559Z,101316.72
2019-05-23T18:43:40.270Z,101317.50
2019-05-23T18:46:15.631Z,101320.63
2019-05-23T18:48:45.789Z,101320.30
2019-05-23T18:51:15.992Z,101323.06
2019-05-23T18:53:46.375Z,101325.86
2019-05-23T18:56:16.982Z,101323.83
2019-05-23T18:58:47.176Z,101327.06
2019-05-23T19:01:22.473Z,101320.91
2019-05-23T19:03:52.622Z,101327.84
2019-05-23T19:06:23.021Z,101327.89
2019-05-23T19:08:53.011Z,101330.46
2019-05-23T19:11:23.374Z,101337.99
2019-05-23T19:13:53.324Z,101331.55
2019-05-23T19:16:23.215Z,101344.07
2019-05-23T19:18:53.661Z,101340.69
2019-05-23T19:21:24.911Z,101334.23
2019-05-23T19:23:55.953Z,101340.12
2019-05-23T19:26:26.293Z,101340.16
2019-05-23T19:28:56.415Z,101347.84
2019-05-23T19:31:26.955Z,101348.92
2019-05-23T19:33:57.550Z,101349.80
2019-05-23T19:36:30.202Z,101349.94
2019-05-23T19:39:01.025Z,101353.36
2019-05-23T19:41:37.692Z,101355.22
2019-05-23T19:44:05.073Z,101350.49
2019-05-23T19:46:35.673Z,101350.84
2019-05-23T19:49:06.049Z,101351.64
2019-05-23T19:51:36.127Z,101350.34
2019-05-23T19:54:08.565Z,101344.50
2019-05-23T19:56:38.717Z,101345.55
2019-05-23T19:59:08.724Z,101340.00
2019-05-23T20:01:51.142Z,101340.23
2019-05-23T20:04:26.193Z,101339.79
2019-05-23T20:06:54.881Z,101344.07
2019-05-23T20:09:26.867Z,101339.03
2019-05-23T20:11:57.684Z,101335.88
2019-05-23T20:14:27.620Z,101336.05
2019-05-23T20:16:57.537Z,101331.61
2019-05-23T20:19:27.614Z,101338.14
2019-05-23T20:21:57.518Z,101336.73
2019-05-23T20:24:27.817Z,101335.80
2019-05-23T20:26:58.319Z,101331.78
2019-05-23T20:29:28.910Z,101336.09
2019-05-23T20:31:58.799Z,101335.19
2019-05-23T20:34:28.907Z,101335.53
2019-05-23T20:36:58.851Z,101343.37
2019-05-23T20:39:29.098Z,101342.06
2019-05-23T20:42:10.808Z,101339.81
2019-05-23T20:44:31.111Z,101350.34
2019-05-23T20:47:01.086Z,101337.45
2019-05-23T20:49:30.958Z,101342.61
2019-05-23T20:52:00.945Z,101341.41
2019-05-23T20:54:33.540Z,101336.63
2019-05-23T20:57:02.831Z,101333.77
2019-05-23T20:59:32.793Z,101334.26
2019-05-23T21:02:03.010Z,101335.68
2019-05-23T21:04:33.224Z,101328.97
2019-05-23T21:07:03.323Z,101324.38
2019-05-23T21:09:33.462Z,101318.61
2019-05-23T21:12:03.463Z,101320.84
2019-05-23T21:14:33.419Z,101324.36
2019-05-23T21:17:03.451Z,101323.02
2019-05-23T21:19:34.159Z,101319.69
2019-05-23T21:22:04.692Z,101314.96
2019-05-23T21:24:35.774Z,101318.70
2019-05-23T21:27:05.843Z,101322.16
2019-05-23T21:29:36.043Z,101315.93
2019-05-23T21:32:06.298Z,101319.52
2019-05-23T21:34:36.216Z,101321.84
2019-05-23T21:37:06.309Z,101315.64
2019-05-23T21:39:39.098Z,101322.98
2019-05-23T21:42:11.027Z,101328.00
2019-05-23T21:44:43.635Z,101326.77
2019-05-23T21:47:14.453Z,101319.29
2019-05-23T21:49:44.384Z,101321.07
2019-05-23T21:52:14.905Z,101318.40
2019-05-23T21:54:46.317Z,101318.98
2019-05-23T21:57:16.452Z,101321.93
2019-05-23T21:59:47.036Z,101313.25
2019-05-23T22:02:24.628Z,101323.02
2019-05-23T22:05:11.528Z,101320.15
2019-05-23T22:07:41.950Z,101315.86
2019-05-23T22:10:12.493Z,101316.86
2019-05-23T22:12:42.745Z,101317.06
2019-05-23T22:15:18.363Z,101315.45
2019-05-23T22:17:49.091Z,101320.22
2019-05-23T22:20:19.463Z,101316.92
2019-05-23T22:22:49.736Z,101316.23
2019-05-23T22:25:32.814Z,101311.33
2019-05-23T22:28:02.923Z,101313.04
2019-05-23T22:30:33.206Z,101312.66
2019-05-23T22:33:03.179Z,101313.52
2019-05-23T22:35:33.651Z,101312.72
2019-05-23T22:38:03.605Z,101319.25
2019-05-23T22:40:33.585Z,101319.67
2019-05-23T22:43:03.765Z,101303.57
2019-05-23T22:45:34.601Z,101309.64
2019-05-23T22:48:04.880Z,101309.81
2019-05-23T22:50:34.947Z,101306.66
2019-05-23T22:53:04.999Z,101303.77
2019-05-23T22:55:35.062Z,101308.87
2019-05-23T22:58:06.103Z,101301.47
2019-05-23T23:00:37.638Z,101303.27
2019-05-23T23:03:07.533Z,101292.77
2019-05-23T23:05:37.477Z,101297.73
2019-05-23T23:08:07.724Z,101301.31
2019-05-23T23:10:37.748Z,101293.33
2019-05-23T23:13:07.729Z,101292.91
2019-05-23T23:15:37.894Z,101289.84
2019-05-23T23:18:08.480Z,101293.41
2019-05-23T23:20:38.538Z,101285.73
2019-05-23T23:23:08.448Z,101285.48
2019-05-23T23:25:38.477Z,101287.47
2019-05-23T23:28:08.414Z,101288.04
2019-05-23T23:30:39.911Z,101285.23
2019-05-23T23:33:09.817Z,101290.95
2019-05-23T23:35:39.876Z,101283.12
2019-05-23T23:38:10.170Z,101285.16
2019-05-23T23:40:40.114Z,101281.98
2019-05-23T23:43:10.162Z,101287.13
2019-05-23T23:45:58.143Z,101287.63
2019-05-23T23:48:45.671Z,101287.11
2019-05-23T23:51:33.463Z,101289.72
2019-05-23T23:54:20.926Z,101283.65
2019-05-23T23:57:08.395Z,101285.09
2019-05-23T23:59:37.507Z,101285.49
